Time;durP1;ratioP1;P1;durP2;ratioP2;P2;SDS_P1;SDS_P2;PMS_P1;PMS_P2;Temp;Humidity;BMP_temperature;BMP_pressure;BME280_temperature;BME280_humidity;BME280_pressure;Samples;Min_cycle;Max_cycle;Signal;HPM_P1;HPM_P2
2022/12/10 00:00:48;;;;;;;108.93;25.95;;;;;;;4.04;71.27;100920.88;5009926;28;20032;-40
2022/12/10 00:03:13;;;;;;;101.57;25.42;;;;;;;4.22;71.42;100919.03;5010670;28;20021;-43
2022/12/10 00:05:38;;;;;;;99.38;25.35;;;;;;;4.23;71.57;100915.63;5010942;28;20403;-41
2022/12/10 00:08:04;;;;;;;112.35;25.83;;;;;;;4.02;71.72;100915.69;5011455;28;20029;-45
2022/12/10 00:10:29;;;;;;;100.45;25.85;;;;;;;3.61;72.82;100920.81;5010956;28;20088;-43
2022/12/10 00:12:55;;;;;;;104.75;26.15;;;;;;;3.51;73.22;100931.56;5010711;28;20036;-40
2022/12/10 00:15:20;;;;;;;108.10;26.25;;;;;;;3.63;72.42;100922.66;5010248;28;20029;-41
2022/12/10 00:17:45;;;;;;;103.25;26.60;;;;;;;4.04;71.86;100918.31;5010494;28;20106;-40
2022/12/10 00:20:11;;;;;;;91.35;25.33;;;;;;;4.16;70.71;100921.38;5010227;28;20030;-41
2022/12/10 00:22:36;;;;;;;87.65;24.60;;;;;;;4.15;70.24;100921.34;5011452;28;20052;-45
2022/12/10 00:25:01;;;;;;;81.38;23.58;;;;;;;4.02;70.66;100925.13;5014118;28;20057;-41
2022/12/10 00:27:27;;;;;;;91.00;25.08;;;;;;;3.91;71.06;100926.38;5014389;28;20033;-41
2022/12/10 00:29:52;;;;;;;89.80;25.45;;;;;;;3.62;71.50;100920.00;5014244;28;20029;-40
2022/12/10 00:32:17;;;;;;;103.45;26.15;;;;;;;3.56;71.14;100927.50;5013180;28;20033;-42
2022/12/10 00:34:43;;;;;;;98.80;25.85;;;;;;;3.30;72.67;100930.66;5013591;28;20018;-42
2022/12/10 00:37:08;;;;;;;100.55;26.13;;;;;;;3.64;72.24;100924.44;5014107;28;20084;-45
2022/12/10 00:39:33;;;;;;;92.13;24.52;;;;;;;3.85;70.79;100926.13;5014017;28;20034;-40
2022/12/10 00:41:59;;;;;;;99.70;25.38;;;;;;;3.61;71.65;100925.97;5013194;28;20018;-41
2022/12/10 00:44:24;;;;;;;102.03;25.92;;;;;;;3.70;71.50;100923.81;5013592;28;20084;-41
2022/12/10 00:46:49;;;;;;;90.45;23.90;;;;;;;3.83;70.38;100928.66;5013528;28;20100;-46
2022/12/10 00:49:15;;;;;;;93.13;25.00;;;;;;;3.76;69.74;100931.78;5014127;28;20022;-38
2022/12/10 00:51:40;;;;;;;86.82;24.42;;;;;;;3.54;71.07;100937.72;5013305;28;20068;-45
2022/12/10 00:54:07;;;;;;;97.38;25.42;;;;;;;3.31;72.17;100943.59;5013471;28;20450;-43
2022/12/10 00:56:33;;;;;;;96.05;25.23;;;;;;;3.57;71.30;100932.72;5014713;28;20033;-42
2022/12/10 00:58:59;;;;;;;103.65;25.65;;;;;;;3.34;72.41;100932.56;5014035;28;20546;-40
2022/12/10 01:01:33;;;;;;;97.28;25.42;;;;;;;3.59;71.53;100928.53;5013269;28;20100;-43
2022/12/10 01:04:05;;;;;;;99.35;25.55;;;;;;;3.55;71.27;100929.19;5013965;28;20029;-42
2022/12/10 01:06:34;;;;;;;87.88;23.95;;;;;;;3.77;70.57;100930.97;5013989;28;20437;-47
2022/12/10 01:09:03;;;;;;;95.30;24.80;;;;;;;3.74;70.14;100936.00;5013755;28;20036;-39
2022/12/10 01:11:32;;;;;;;98.93;24.70;;;;;;;3.60;71.36;100937.09;5012933;28;20445;-47
2022/12/10 01:13:58;;;;;;;96.55;25.25;;;;;;;3.80;71.05;100946.56;5013923;28;20476;-43
2022/12/10 01:16:24;;;;;;;95.72;25.65;;;;;;;3.72;71.75;100953.09;5013856;28;20036;-44
2022/12/10 01:18:52;;;;;;;98.88;25.88;;;;;;;3.80;71.56;100943.97;5013693;28;20025;-43
2022/12/10 01:21:19;;;;;;;101.13;26.45;;;;;;;3.87;71.59;100945.13;5013006;28;20026;-38
2022/12/10 01:23:46;;;;;;;108.07;27.02;;;;;;;3.85;71.83;100947.63;5013577;28;20036;-39
2022/12/10 01:26:19;;;;;;;95.60;26.55;;;;;;;3.94;71.70;100955.75;5013820;28;20084;-44
2022/12/10 01:28:45;;;;;;;105.03;27.25;;;;;;;3.80;71.02;100951.72;5012464;28;20486;-43
2022/12/10 01:31:15;;;;;;;94.05;26.48;;;;;;;3.86;71.71;100959.72;5014031;28;20036;-49
2022/12/10 01:33:40;;;;;;;107.65;27.80;;;;;;;3.47;72.28;100955.47;5015381;28;20060;-44
2022/12/10 01:36:08;;;;;;;104.28;28.17;;;;;;;3.77;71.80;100964.50;5015700;28;20482;-41
2022/12/10 01:38:33;;;;;;;96.75;26.08;;;;;;;3.89;71.84;100959.84;5014605;28;20077;-38
2022/12/10 01:41:00;;;;;;;94.88;26.42;;;;;;;3.99;71.59;100961.09;5011936;28;20477;-41
2022/12/10 01:43:27;;;;;;;100.72;27.98;;;;;;;3.60;72.23;100957.72;5012298;28;20034;-39
2022/12/10 01:45:52;;;;;;;102.85;27.83;;;;;;;3.72;71.53;100963.41;5013184;28;20057;-40
2022/12/10 01:48:18;;;;;;;101.53;27.27;;;;;;;4.26;71.19;100963.94;5013153;28;20057;-41
2022/12/10 01:50:43;;;;;;;101.47;27.73;;;;;;;4.26;70.34;100969.09;5012866;28;20030;-44
2022/12/10 01:53:09;;;;;;;100.53;27.33;;;;;;;4.13;70.48;100974.56;5013714;28;20032;-39
2022/12/10 01:55:50;;;;;;;100.53;27.77;;;;;;;4.19;70.69;100972.25;5012337;28;20084;-42
2022/12/10 01:58:18;;;;;;;94.95;26.58;;;;;;;4.21;71.31;100975.78;5012783;28;20030;-43
2022/12/10 02:00:50;;;;;;;103.22;28.00;;;;;;;3.99;71.47;100972.31;5012319;28;20053;-40
2022/12/10 02:03:27;;;;;;;109.95;28.15;;;;;;;3.94;72.04;100978.97;5012473;28;20028;-43
2022/12/10 02:06:10;;;;;;;114.18;28.83;;;;;;;3.80;71.92;100985.25;5012843;28;20032;-41
2022/12/10 02:08:45;;;;;;;96.25;27.38;;;;;;;4.13;71.67;100972.88;5013273;28;20022;-45
2022/12/10 02:11:24;;;;;;;105.55;27.52;;;;;;;3.99;71.40;100976.56;5012173;28;20101;-40
2022/12/10 02:14:04;;;;;;;100.57;28.42;;;;;;;4.02;71.15;100976.72;5012516;28;20049;-42
2022/12/10 02:16:48;;;;;;;102.40;27.70;;;;;;;4.19;70.80;100972.25;5012033;28;20105;-40
2022/12/10 02:19:35;;;;;;;105.32;27.50;;;;;;;4.23;71.30;100963.78;5011995;28;20115;-41
2022/12/10 02:22:01;;;;;;;117.68;27.85;;;;;;;3.98;70.84;100969.66;5011135;28;20104;-42
2022/12/10 02:24:32;;;;;;;131.70;29.85;;;;;;;3.96;71.39;100974.78;5012170;28;20040;-41
2022/12/10 02:27:11;;;;;;;121.55;29.38;;;;;;;3.96;71.83;100968.72;5011703;28;20040;-42
2022/12/10 02:29:38;;;;;;;104.38;28.42;;;;;;;4.14;71.71;100964.31;5011786;28;20413;-40
2022/12/10 02:32:09;;;;;;;124.32;28.83;;;;;;;4.15;70.85;100965.19;5010998;28;20032;-47
2022/12/10 02:34:38;;;;;;;115.95;28.50;;;;;;;4.32;70.77;100965.06;5011445;28;20112;-40
2022/12/10 02:37:10;;;;;;;91.63;27.10;;;;;;;4.49;70.16;100958.84;5011776;28;20029;-42
2022/12/10 02:39:43;;;;;;;187.15;28.70;;;;;;;4.01;71.65;100967.22;5011720;28;20041;-40
2022/12/10 02:42:10;;;;;;;101.22;28.38;;;;;;;4.35;70.95;100965.16;5016655;28;20014;-42
2022/12/10 02:44:38;;;;;;;211.50;29.20;;;;;;;4.01;70.59;100956.91;5015738;28;20025;-41
2022/12/10 02:47:05;;;;;;;96.35;28.15;;;;;;;4.26;71.26;100951.91;5015880;28;20026;-40
2022/12/10 02:49:30;;;;;;;130.93;27.77;;;;;;;4.31;70.79;100958.13;5014765;28;20057;-39
2022/12/10 02:51:55;;;;;;;93.68;26.95;;;;;;;4.32;70.92;100959.00;5014579;28;20053;-42
2022/12/10 02:54:42;;;;;;;139.30;27.05;;;;;;;4.33;71.16;100950.44;5013552;28;20488;-44
2022/12/10 02:57:39;;;;;;;109.45;28.88;;;;;;;4.47;70.24;100954.44;5013078;28;20029;-43
2022/12/10 03:00:18;;;;;;;144.52;27.33;;;;;;;4.42;71.04;100951.69;5012072;28;20022;-45
2022/12/10 03:03:07;;;;;;;104.53;27.10;;;;;;;4.44;70.15;100954.31;5011764;28;20053;-41
2022/12/10 03:05:41;;;;;;;145.40;27.83;;;;;;;4.45;70.54;100949.19;5011818;28;20105;-41
2022/12/10 03:08:13;;;;;;;249.02;29.67;;;;;;;4.04;71.31;100957.00;5011343;28;20391;-40
2022/12/10 03:11:03;;;;;;;140.70;27.17;;;;;;;4.44;71.01;100956.91;5010485;28;20034;-42
2022/12/10 03:13:35;;;;;;;123.30;27.50;;;;;;;4.31;71.08;100952.09;5011350;28;20029;-40
2022/12/10 03:16:02;;;;;;;172.15;27.35;;;;;;;4.17;71.43;100958.38;5010958;28;20029;-40
2022/12/10 03:18:31;;;;;;;224.85;26.73;;;;;;;4.30;70.52;100956.34;5011016;28;20087;-37
2022/12/10 03:23:42;;;;;;;99.82;25.75;;;;;;;4.47;70.33;100950.16;5029900;28;20076;-41
2022/12/10 03:26:08;;;;;;;185.02;28.02;;;;;;;4.48;70.80;100953.63;5034370;28;20064;-42
2022/12/10 03:28:40;;;;;;;114.95;26.60;;;;;;;4.31;71.37;100957.25;5033456;28;20029;-41
2022/12/10 03:31:08;;;;;;;267.25;30.23;;;;;;;3.89;71.80;100966.72;5033234;28;20035;-43
2022/12/10 03:33:34;;;;;;;176.23;26.42;;;;;;;4.14;71.93;100960.84;5032741;28;20021;-41
2022/12/10 03:35:59;;;;;;;100.32;25.90;;;;;;;4.32;71.43;100961.59;5031569;28;20036;-45
2022/12/10 03:38:25;;;;;;;158.85;27.48;;;;;;;4.32;71.16;100954.72;5031041;28;20469;-45
2022/12/10 03:40:50;;;;;;;127.55;25.52;;;;;;;4.44;70.46;100955.22;5030758;28;20426;-41
2022/12/10 03:43:16;;;;;;;94.22;25.75;;;;;;;4.53;70.94;100961.53;5032415;28;20081;-43
2022/12/10 03:45:41;;;;;;;98.63;25.40;;;;;;;4.45;70.59;100969.84;5034003;28;20357;-46
2022/12/10 03:48:06;;;;;;;147.65;27.42;;;;;;;4.40;70.61;100971.38;5033489;28;20049;-42
2022/12/10 03:50:32;;;;;;;140.35;25.35;;;;;;;4.48;70.86;100967.41;5033081;28;20025;-45
2022/12/10 03:52:57;;;;;;;321.63;28.35;;;;;;;4.28;70.55;100968.31;5033533;28;20029;-41
2022/12/10 03:55:22;;;;;;;72.32;24.85;;;;;;;4.63;70.91;100967.13;5035269;28;20052;-41
2022/12/10 03:57:48;;;;;;;107.72;25.50;;;;;;;4.55;70.26;100962.47;5037630;28;20026;-41
2022/12/10 04:00:14;;;;;;;139.55;25.40;;;;;;;4.51;70.38;100971.81;5037542;28;20108;-41
2022/12/10 04:02:39;;;;;;;169.57;25.85;;;;;;;4.55;70.55;100958.19;5036824;28;20061;-41
2022/12/10 04:05:06;;;;;;;80.70;24.02;;;;;;;4.52;70.75;100973.56;5036364;28;20044;-47
2022/12/10 04:07:31;;;;;;;146.98;24.25;;;;;;;4.43;70.81;100978.38;5035696;28;20074;-42
2022/12/10 04:09:57;;;;;;;93.85;24.15;;;;;;;4.41;70.81;100970.56;5034715;28;20104;-42
2022/12/10 04:12:22;;;;;;;225.98;26.08;;;;;;;4.28;70.54;100976.06;5033940;28;20048;-41
2022/12/10 04:17:33;;;;;;;272.95;27.40;;;;;;;3.92;72.70;100970.28;5034053;28;20033;-43
2022/12/10 04:19:58;;;;;;;122.28;26.10;;;;;;;4.13;72.31;100972.00;5034540;28;20032;-43
2022/12/10 04:27:54;;;;;;;103.72;23.67;;;;;;;4.31;72.26;100971.03;5036286;28;20029;-46
2022/12/10 04:30:19;;;;;;;103.38;24.33;;;;;;;4.49;70.53;100969.19;5037008;28;20021;-43
2022/12/10 04:32:45;;;;;;;233.38;25.05;;;;;;;4.16;71.32;100962.66;5038642;28;20037;-44
2022/12/10 04:35:10;;;;;;;136.98;24.15;;;;;;;4.25;71.39;100960.47;5042462;28;20329;-45
2022/12/10 04:37:36;;;;;;;93.07;23.15;;;;;;;4.53;71.13;100956.38;5052094;28;20026;-45
2022/12/10 04:40:02;;;;;;;202.00;25.33;;;;;;;4.26;71.30;100964.81;5042247;28;20025;-40
2022/12/10 04:42:28;;;;;;;146.20;24.67;;;;;;;4.28;71.94;100964.84;5041683;28;20021;-42
2022/12/10 04:44:53;;;;;;;225.23;25.17;;;;;;;4.38;71.33;100967.88;5043136;28;20448;-46
2022/12/10 04:47:18;;;;;;;232.60;25.77;;;;;;;4.25;71.51;100977.66;5038755;28;20029;-41
2022/12/10 04:49:44;;;;;;;123.50;23.50;;;;;;;4.43;71.28;100976.69;5038081;28;20326;-43
2022/12/10 04:52:12;;;;;;;107.63;25.15;;;;;;;4.43;71.79;100975.78;5036120;28;20052;-43
2022/12/10 04:54:37;;;;;;;195.85;25.67;;;;;;;4.20;71.62;100974.88;5037061;28;20085;-47
2022/12/10 04:57:02;;;;;;;83.95;23.20;;;;;;;4.62;70.94;100970.53;5036363;28;20071;-41
2022/12/10 04:59:28;;;;;;;206.18;25.25;;;;;;;4.52;71.46;100975.25;5035828;28;20032;-42
2022/12/10 05:01:53;;;;;;;88.20;22.23;;;;;;;4.65;71.00;100974.91;5035419;28;20029;-38
2022/12/10 05:04:19;;;;;;;111.85;22.40;;;;;;;4.45;71.46;100971.59;5035025;28;20021;-42
2022/12/10 05:06:44;;;;;;;82.40;22.33;;;;;;;4.72;70.89;100967.47;5035128;28;20037;-41
2022/12/10 05:09:11;;;;;;;142.93;23.65;;;;;;;4.52;70.92;100978.72;5034400;28;20091;-44
2022/12/10 05:11:37;;;;;;;126.53;21.77;;;;;;;4.54;71.05;100969.34;5038673;28;20393;-43
2022/12/10 05:14:03;;;;;;;92.13;21.52;;;;;;;4.34;71.79;100972.84;5038016;28;20036;-42
2022/12/10 05:16:30;;;;;;;222.52;23.58;;;;;;;4.12;72.10;100978.84;5042955;28;20029;-42
2022/12/10 05:18:56;;;;;;;247.20;23.65;;;;;;;4.12;71.85;100971.09;5044955;28;20066;-40
2022/12/10 05:21:23;;;;;;;91.25;23.25;;;;;;;4.60;71.30;100963.53;5033631;28;20068;-42
2022/12/10 05:23:51;;;;;;;259.08;24.83;;;;;;;4.04;72.46;100963.03;5033141;28;20097;-46
2022/12/10 05:26:20;;;;;;;137.23;21.55;;;;;;;4.33;72.27;100963.34;5033036;28;20025;-44
2022/12/10 05:28:47;;;;;;;268.23;22.95;;;;;;;4.35;71.59;100970.31;5037147;28;20156;-42
2022/12/10 05:31:24;;;;;;;121.43;21.85;;;;;;;4.57;71.51;100958.28;5036180;28;20393;-41
2022/12/10 05:33:51;;;;;;;144.57;22.88;;;;;;;4.48;70.88;100962.25;5038647;28;20352;-41
2022/12/10 05:36:20;;;;;;;87.40;21.17;;;;;;;4.57;71.13;100954.00;5039275;28;20018;-44
2022/12/10 05:38:45;;;;;;;70.97;18.60;;;;;;;4.76;70.46;100955.53;5038915;28;20055;-41
2022/12/10 05:41:14;;;;;;;119.85;21.52;;;;;;;4.57;70.83;100958.28;5038519;28;20018;-43
2022/12/10 05:43:40;;;;;;;148.20;21.25;;;;;;;4.51;71.09;100955.44;5035182;28;20104;-41
2022/12/10 05:46:09;;;;;;;124.65;21.35;;;;;;;4.57;70.75;100955.69;5032686;28;20065;-40
2022/12/10 05:48:35;;;;;;;144.60;22.25;;;;;;;4.49;71.57;100968.28;5032736;28;20052;-40
2022/12/10 05:51:11;;;;;;;90.93;20.27;;;;;;;4.68;71.21;100963.03;5032241;28;20478;-42
2022/12/10 05:53:37;;;;;;;106.45;21.73;;;;;;;4.76;70.69;100963.28;5032518;28;20025;-45
2022/12/10 05:56:05;;;;;;;148.95;22.25;;;;;;;4.79;71.00;100963.41;5032710;28;20021;-43
2022/12/10 05:58:31;;;;;;;81.07;21.63;;;;;;;4.94;70.61;100966.56;5032493;28;20018;-45
2022/12/10 06:00:57;;;;;;;114.20;20.23;;;;;;;4.88;70.06;100961.16;5033788;28;20489;-42
2022/12/10 06:03:24;;;;;;;158.13;20.33;;;;;;;4.81;70.77;100964.38;5033306;28;20101;-43
2022/12/10 06:05:49;;;;;;;101.07;18.23;;;;;;;4.76;69.72;100964.16;5032709;28;20071;-42
2022/12/10 06:08:14;;;;;;;86.32;18.98;;;;;;;4.66;71.05;100964.66;5032174;28;20393;-40
2022/12/10 06:10:40;;;;;;;57.92;18.00;;;;;;;4.82;70.59;100963.53;5031552;28;20025;-42
2022/12/10 06:13:05;;;;;;;109.72;18.45;;;;;;;4.45;71.62;100971.59;5032078;28;20029;-39
2022/12/10 06:15:32;;;;;;;64.72;17.23;;;;;;;4.66;70.44;100971.53;5032012;28;20026;-39
2022/12/10 06:17:58;;;;;;;81.47;19.95;;;;;;;4.65;70.73;100977.50;5031782;28;20083;-41
2022/12/10 06:20:25;;;;;;;88.07;18.42;;;;;;;4.75;70.33;100980.53;5031717;28;20079;-46
2022/12/10 06:22:51;;;;;;;161.15;20.17;;;;;;;4.55;70.81;100977.97;5032189;28;20041;-41
2022/12/10 06:25:17;;;;;;;109.75;18.48;;;;;;;4.66;70.89;100982.72;5031943;28;20449;-43
2022/12/10 06:27:42;;;;;;;136.20;18.85;;;;;;;4.66;70.59;100982.72;5032282;28;20104;-44
2022/12/10 06:30:08;;;;;;;92.72;18.20;;;;;;;4.50;70.91;100980.38;5031585;28;20025;-41
2022/12/10 06:32:34;;;;;;;63.22;18.48;;;;;;;4.83;69.86;100985.94;5030123;28;20087;-40
2022/12/10 06:34:59;;;;;;;132.95;19.52;;;;;;;4.66;70.51;100993.06;5031446;28;20025;-41
2022/12/10 06:37:24;;;;;;;116.80;20.20;;;;;;;4.70;71.12;100994.03;5031996;28;20381;-47
2022/12/10 06:39:52;;;;;;;96.93;20.45;;;;;;;4.84;70.21;100988.59;5031460;28;20239;-40
2022/12/10 06:42:17;;;;;;;106.70;19.90;;;;;;;4.79;70.84;100979.81;5030837;28;20066;-42
2022/12/10 06:44:42;;;;;;;164.85;22.08;;;;;;;4.84;70.50;100996.34;5031548;28;20399;-41
2022/12/10 06:47:08;;;;;;;114.25;18.67;;;;;;;4.93;70.02;100993.25;5031371;28;20022;-41
2022/12/10 06:49:33;;;;;;;234.73;20.80;;;;;;;4.53;70.60;100995.09;5031023;28;20025;-41
2022/12/10 06:51:58;;;;;;;90.43;16.88;;;;;;;4.49;71.22;101001.84;5030934;28;20040;-40
2022/12/10 06:54:24;;;;;;;138.70;17.98;;;;;;;4.23;71.17;101005.97;5031269;28;20021;-44
2022/12/10 06:56:49;;;;;;;92.78;18.25;;;;;;;4.46;70.83;101004.28;5032387;28;20079;-42
2022/12/10 06:59:14;;;;;;;145.57;18.48;;;;;;;4.00;72.58;101017.91;5034227;28;20025;-40
2022/12/10 07:01:39;;;;;;;78.50;17.48;;;;;;;4.27;71.34;101019.88;5031929;28;20481;-41
2022/12/10 07:04:05;;;;;;;85.22;18.08;;;;;;;4.37;70.81;101019.44;5031640;28;20036;-43
2022/12/10 07:06:32;;;;;;;51.00;16.50;;;;;;;4.56;70.57;101021.06;5036307;28;20421;-45
2022/12/10 07:08:57;;;;;;;63.33;17.08;;;;;;;4.44;71.01;101026.59;5036005;28;20025;-42
2022/12/10 07:11:24;;;;;;;72.47;17.60;;;;;;;4.59;70.63;101022.03;5031169;28;20021;-42
2022/12/10 07:13:50;;;;;;;84.80;17.83;;;;;;;4.66;70.59;101018.88;5040378;28;20044;-43
2022/12/10 07:16:21;;;;;;;164.88;18.90;;;;;;;4.02;71.20;101025.72;5045554;28;20033;-44
2022/12/10 07:18:48;;;;;;;70.30;17.60;;;;;;;4.43;71.27;101022.25;5034114;28;20481;-46
2022/12/10 07:21:17;;;;;;;70.78;17.70;;;;;;;4.32;70.77;101021.84;5032251;28;20140;-41
2022/12/10 07:23:43;;;;;;;71.80;17.00;;;;;;;4.45;71.07;101023.22;5032542;28;20063;-42
2022/12/10 07:26:08;;;;;;;99.72;19.27;;;;;;;4.41;70.76;101023.88;5031861;28;20365;-42
2022/12/10 07:28:34;;;;;;;125.97;19.25;;;;;;;4.29;71.22;101024.28;5031104;28;20022;-44
2022/12/10 07:31:08;;;;;;;101.53;18.00;;;;;;;4.18;71.63;101025.53;5030361;28;20466;-40
2022/12/10 07:33:34;;;;;;;76.93;19.08;;;;;;;4.41;70.82;101023.88;5030502;28;20044;-41
2022/12/10 07:36:05;;;;;;;76.47;18.50;;;;;;;4.54;70.67;101022.69;5030307;28;20486;-44
2022/12/10 07:38:31;;;;;;;71.40;18.45;;;;;;;4.67;70.40;101024.94;5030466;28;20026;-40
2022/12/10 07:40:56;;;;;;;67.68;19.05;;;;;;;4.67;70.41;101027.50;5030247;28;20027;-44
2022/12/10 07:43:21;;;;;;;107.53;19.42;;;;;;;4.61;70.49;101025.56;5031217;28;20064;-40
2022/12/10 07:45:47;;;;;;;99.65;19.98;;;;;;;4.32;70.21;101029.56;5032141;28;20078;-40
2022/12/10 07:48:12;;;;;;;66.30;19.23;;;;;;;4.55;70.53;101027.03;5032507;28;20159;-41
2022/12/10 07:50:37;;;;;;;70.15;18.95;;;;;;;4.58;70.87;101028.00;5032607;28;20444;-40
2022/12/10 07:53:03;;;;;;;67.97;18.85;;;;;;;4.62;70.58;101034.19;5030532;28;20122;-44
2022/12/10 07:55:28;;;;;;;76.22;19.15;;;;;;;4.55;70.92;101033.06;5032039;28;20022;-41
2022/12/10 07:57:53;;;;;;;59.65;18.73;;;;;;;4.73;70.42;101038.09;5032506;28;20037;-43
2022/12/10 08:00:19;;;;;;;66.55;18.45;;;;;;;4.54;71.00;101033.00;5032574;28;20059;-41
2022/12/10 08:02:44;;;;;;;64.25;17.95;;;;;;;4.59;70.17;101040.13;5034458;28;20405;-41
2022/12/10 08:05:10;;;;;;;91.10;19.55;;;;;;;4.54;70.97;101048.50;5032991;28;20021;-41
2022/12/10 08:07:36;;;;;;;103.28;19.55;;;;;;;4.43;70.91;101048.97;5032211;28;20060;-44
2022/12/10 08:10:02;;;;;;;80.55;19.75;;;;;;;4.49;71.17;101054.38;5032284;28;20091;-41
2022/12/10 08:12:27;;;;;;;72.13;18.92;;;;;;;4.53;70.92;101057.94;5030805;28;20032;-43
2022/12/10 08:14:53;;;;;;;62.05;19.90;;;;;;;4.68;71.00;101056.00;5031358;28;20316;-41
2022/12/10 08:17:18;;;;;;;64.13;19.58;;;;;;;4.67;70.94;101054.22;5030194;28;20113;-42
2022/12/10 08:19:44;;;;;;;65.65;20.00;;;;;;;4.83;70.33;101056.56;5030592;28;20553;-42
2022/12/10 08:22:10;;;;;;;68.35;20.08;;;;;;;4.85;70.13;101061.81;5029686;28;20067;-40
2022/12/10 08:24:35;;;;;;;87.25;21.40;;;;;;;4.84;70.52;101065.22;5030012;28;20029;-41
2022/12/10 08:27:01;;;;;;;95.90;21.00;;;;;;;4.89;70.11;101074.00;5030115;28;20298;-46
2022/12/10 08:29:26;;;;;;;78.70;20.98;;;;;;;4.82;70.21;101078.06;5030123;28;20052;-42
2022/12/10 08:31:52;;;;;;;97.60;21.70;;;;;;;4.41;71.73;101078.97;5029454;28;20417;-41
2022/12/10 08:34:18;;;;;;;70.20;19.77;;;;;;;4.62;71.11;101076.41;5028674;28;20481;-44
2022/12/10 08:36:44;;;;;;;76.60;20.45;;;;;;;4.77;70.46;101070.94;5030331;28;20497;-40
2022/12/10 08:39:10;;;;;;;89.28;22.10;;;;;;;4.63;70.82;101070.44;5030756;28;20026;-41
2022/12/10 08:41:36;;;;;;;75.72;20.13;;;;;;;4.87;70.12;101070.50;5029949;28;20109;-44
2022/12/10 08:44:01;;;;;;;104.25;22.25;;;;;;;4.76;70.53;101079.50;5033992;28;20051;-42
2022/12/10 08:46:26;;;;;;;82.18;21.02;;;;;;;4.71;70.99;101086.19;5033965;28;20052;-43
2022/12/10 08:48:52;;;;;;;68.93;21.55;;;;;;;4.72;71.31;101086.28;5035425;28;20108;-45
2022/12/10 08:51:19;;;;;;;77.80;21.08;;;;;;;4.72;70.89;101081.09;5033638;28;20192;-42
2022/12/10 08:53:44;;;;;;;79.18;22.27;;;;;;;4.63;70.80;101085.91;5033713;28;20112;-42
2022/12/10 08:56:10;;;;;;;75.90;21.77;;;;;;;4.89;70.14;101086.94;5037370;28;20458;-42
2022/12/10 08:58:37;;;;;;;82.25;21.65;;;;;;;4.92;69.89;101081.91;5039100;28;20041;-43
2022/12/10 09:01:11;;;;;;;84.32;22.02;;;;;;;4.66;70.35;101087.72;5035269;28;20489;-42
2022/12/10 09:03:37;;;;;;;108.45;21.02;;;;;;;4.51;71.10;101095.75;5034518;28;20037;-42
2022/12/10 09:06:08;;;;;;;83.10;21.63;;;;;;;4.41;71.77;101098.75;5034313;28;20026;-42
2022/12/10 09:08:34;;;;;;;100.18;21.13;;;;;;;4.38;70.99;101096.94;5035960;28;20108;-42
2022/12/10 09:11:08;;;;;;;72.85;22.10;;;;;;;4.43;70.99;101095.41;5038746;28;20139;-44
2022/12/10 09:13:33;;;;;;;76.05;21.23;;;;;;;4.75;70.67;101089.00;5038032;28;20030;-44
2022/12/10 09:15:59;;;;;;;71.88;21.73;;;;;;;4.86;70.06;101097.16;5034184;28;20036;-43
2022/12/10 09:18:24;;;;;;;64.35;21.02;;;;;;;5.07;70.10;101102.25;5036727;28;20676;-40
2022/12/10 09:20:49;;;;;;;100.53;21.65;;;;;;;4.78;69.64;101102.00;5036804;28;20029;-42
2022/12/10 09:23:15;;;;;;;70.57;20.90;;;;;;;4.65;70.56;101104.03;5041651;22;20128;-42
2022/12/10 09:25:40;;;;;;;72.97;21.27;;;;;;;5.03;69.94;101102.97;5013167;28;20092;-41
2022/12/10 09:28:05;;;;;;;71.90;20.58;;;;;;;4.76;70.29;101113.09;5013198;28;20029;-40
2022/12/10 09:30:31;;;;;;;103.38;22.50;;;;;;;4.79;70.05;101116.69;5012958;28;20068;-39
2022/12/10 09:32:56;;;;;;;63.58;20.83;;;;;;;5.03;69.59;101114.19;5013115;28;20466;-44
2022/12/10 09:35:21;;;;;;;67.13;21.08;;;;;;;4.81;69.86;101120.22;5013556;28;20490;-37
2022/12/10 09:37:47;;;;;;;90.35;20.80;;;;;;;4.84;69.70;101117.75;5013087;28;20105;-41
2022/12/10 09:40:17;;;;;;;73.30;20.90;;;;;;;5.00;69.25;101113.22;5013333;28;20117;-41
2022/12/10 09:42:42;;;;;;;68.32;19.27;;;;;;;4.51;70.65;101113.81;5013679;28;20033;-40
2022/12/10 09:45:25;;;;;;;80.55;20.08;;;;;;;4.42;71.02;101122.03;5014492;28;20474;-42
2022/12/10 09:48:13;;;;;;;63.67;20.17;;;;;;;4.45;70.35;101124.75;5014019;28;20026;-40
2022/12/10 09:51:13;;;;;;;56.80;19.65;;;;;;;4.74;70.06;101123.38;5012934;28;20053;-40
2022/12/10 09:53:40;;;;;;;70.75;20.20;;;;;;;4.68;70.17;101115.38;5013443;28;20038;-40
2022/12/10 09:56:14;;;;;;;61.40;19.88;;;;;;;4.79;69.69;101116.69;5013877;28;20144;-44
2022/12/10 09:58:39;;;;;;;64.57;21.15;;;;;;;4.84;69.48;101124.63;5013314;28;20030;-42
2022/12/10 10:01:06;;;;;;;71.60;21.58;;;;;;;4.68;70.12;101122.25;5013227;28;20021;-40
2022/12/10 10:03:38;;;;;;;79.18;19.20;;;;;;;4.42;70.39;101126.31;5012791;28;20029;-41
2022/12/10 10:06:04;;;;;;;61.28;19.65;;;;;;;4.72;70.16;101126.69;5012282;28;20097;-41
2022/12/10 10:08:56;;;;;;;62.92;19.63;;;;;;;4.85;69.84;101118.63;5012535;28;20117;-41
2022/12/10 10:11:26;;;;;;;63.25;20.48;;;;;;;5.01;69.95;101112.38;5010343;28;20033;-41
2022/12/10 10:14:03;;;;;;;61.15;20.30;;;;;;;4.97;69.42;101115.66;5012041;28;20037;-40
2022/12/10 10:16:45;;;;;;;62.15;20.75;;;;;;;5.15;68.88;101111.22;5012647;28;20033;-39
2022/12/10 10:19:17;;;;;;;63.17;20.67;;;;;;;5.08;68.90;101124.72;5012512;28;20026;-41
2022/12/10 10:21:46;;;;;;;58.50;20.05;;;;;;;5.01;69.30;101125.28;5011829;28;20419;-40
2022/12/10 10:24:21;;;;;;;58.75;20.42;;;;;;;5.34;68.59;101120.56;5012073;28;20030;-41
2022/12/10 10:26:46;;;;;;;58.60;19.58;;;;;;;5.38;68.68;101120.72;5012084;28;20152;-40
2022/12/10 10:29:17;;;;;;;60.17;20.08;;;;;;;5.04;69.47;101131.47;5011100;28;20109;-42
2022/12/10 10:31:43;;;;;;;62.92;20.15;;;;;;;5.06;68.72;101134.13;5011975;28;20054;-42
2022/12/10 10:34:21;;;;;;;57.55;19.85;;;;;;;5.07;68.59;101134.16;5012473;28;20030;-41
2022/12/10 10:36:52;;;;;;;56.35;19.92;;;;;;;5.08;68.16;101132.47;5013218;28;20025;-40
2022/12/10 10:39:18;;;;;;;59.40;20.08;;;;;;;5.09;68.66;101135.13;5013100;28;20025;-46
2022/12/10 10:41:45;;;;;;;80.47;20.95;;;;;;;5.02;68.28;101132.22;5013652;28;20479;-39
2022/12/10 10:44:16;;;;;;;57.72;20.10;;;;;;;5.15;68.42;101137.06;5014616;28;20092;-43
2022/12/10 10:46:44;;;;;;;50.65;20.05;;;;;;;4.87;68.81;101135.09;5015136;28;20048;-39
2022/12/10 10:49:31;;;;;;;63.97;19.83;;;;;;;5.04;68.69;101136.63;5013607;28;20056;-41
2022/12/10 10:52:15;;;;;;;73.50;20.38;;;;;;;4.53;69.58;101150.88;5011035;28;20030;-43
2022/12/10 10:54:43;;;;;;;56.10;19.80;;;;;;;4.62;69.96;101147.81;5011393;28;20080;-40
2022/12/10 10:57:36;;;;;;;53.30;19.77;;;;;;;5.01;69.62;101146.84;5011242;28;20084;-41
2022/12/10 11:00:17;;;;;;;66.45;20.73;;;;;;;4.42;70.51;101141.81;5011281;28;20038;-43
2022/12/10 11:02:42;;;;;;;64.20;19.98;;;;;;;4.90;70.17;101150.69;5009989;28;20025;-41
2022/12/10 11:05:23;;;;;;;55.38;20.42;;;;;;;4.87;69.52;101150.59;5010401;28;20025;-42
2022/12/10 11:08:01;;;;;;;54.67;19.80;;;;;;;4.83;69.41;101149.56;5011148;28;20101;-41
2022/12/10 11:10:27;;;;;;;50.03;18.63;;;;;;;5.08;69.24;101154.03;5011718;28;20113;-41
2022/12/10 11:13:23;;;;;;;50.90;19.75;;;;;;;5.10;69.22;101144.63;5010870;28;20461;-42
2022/12/10 11:15:58;;;;;;;50.17;19.10;;;;;;;5.18;68.80;101138.06;5009441;28;20053;-41
2022/12/10 11:18:35;;;;;;;55.63;19.90;;;;;;;5.34;67.97;101141.22;5010759;28;20032;-41
2022/12/10 11:21:16;;;;;;;52.78;19.75;;;;;;;5.34;68.62;101139.53;5010982;28;20026;-41
2022/12/10 11:23:46;;;;;;;55.13;19.88;;;;;;;5.18;68.90;101151.00;5010998;28;20029;-43
2022/12/10 11:26:18;;;;;;;52.00;19.38;;;;;;;5.39;68.13;101144.88;5011312;28;20056;-41
2022/12/10 11:28:55;;;;;;;50.78;19.48;;;;;;;5.36;68.00;101137.00;5011076;28;20097;-44
2022/12/10 11:31:40;;;;;;;56.63;19.65;;;;;;;5.35;68.63;101143.00;5010808;28;20030;-41